sensor_id;sensor_type;location;lat;lon;timestamp;P1;durP1;ratioP1;P2;durP2;ratioP2
32786;SDS011;19139;49.372;8.580;2023-07-08T00:00:40;21.13;;;14.50;;
32786;SDS011;19139;49.372;8.580;2023-07-08T00:03:07;22.10;;;16.30;;
32786;SDS011;19139;49.372;8.580;2023-07-08T00:05:34;21.10;;;15.27;;
32786;SDS011;19139;49.372;8.580;2023-07-08T00:08:02;17.73;;;13.33;;
32786;SDS011;19139;49.372;8.580;2023-07-08T00:10:29;19.57;;;13.83;;
32786;SDS011;19139;49.372;8.580;2023-07-08T00:12:56;17.97;;;13.20;;
32786;SDS011;19139;49.372;8.580;2023-07-08T00:15:27;13.63;;;10.90;;
32786;SDS011;19139;49.372;8.580;2023-07-08T00:17:56;13.83;;;11.33;;
32786;SDS011;19139;49.372;8.580;2023-07-08T00:20:39;15.07;;;11.13;;
32786;SDS011;19139;49.372;8.580;2023-07-08T00:23:08;10.80;;;8.60;;
32786;SDS011;19139;49.372;8.580;2023-07-08T00:25:35;16.37;;;8.77;;
32786;SDS011;19139;49.372;8.580;2023-07-08T00:28:04;11.20;;;9.10;;
32786;SDS011;19139;49.372;8.580;2023-07-08T00:30:39;12.70;;;8.93;;
32786;SDS011;19139;49.372;8.580;2023-07-08T00:33:06;10.90;;;8.60;;
32786;SDS011;19139;49.372;8.580;2023-07-08T00:35:34;10.70;;;8.47;;
32786;SDS011;19139;49.372;8.580;2023-07-08T00:38:17;12.17;;;8.43;;
32786;SDS011;19139;49.372;8.580;2023-07-08T00:43:43;19.43;;;14.33;;
32786;SDS011;19139;49.372;8.580;2023-07-08T00:49:19;18.77;;;14.57;;
32786;SDS011;19139;49.372;8.580;2023-07-08T00:51:50;17.80;;;14.53;;
32786;SDS011;19139;49.372;8.580;2023-07-08T00:54:17;13.67;;;11.13;;
32786;SDS011;19139;49.372;8.580;2023-07-08T01:00:29;14.43;;;11.17;;
32786;SDS011;19139;49.372;8.580;2023-07-08T01:02:25;13.90;;;9.90;;
32786;SDS011;19139;49.372;8.580;2023-07-08T01:07:48;11.30;;;9.80;;
32786;SDS011;19139;49.372;8.580;2023-07-08T01:10:20;10.27;;;8.83;;
32786;SDS011;19139;49.372;8.580;2023-07-08T01:12:53;11.77;;;8.53;;
32786;SDS011;19139;49.372;8.580;2023-07-08T01:15:24;10.30;;;7.83;;
32786;SDS011;19139;49.372;8.580;2023-07-08T01:17:56;9.93;;;8.07;;
32786;SDS011;19139;49.372;8.580;2023-07-08T01:20:22;10.37;;;7.87;;
32786;SDS011;19139;49.372;8.580;2023-07-08T01:22:49;10.27;;;7.30;;
32786;SDS011;19139;49.372;8.580;2023-07-08T01:25:16;11.20;;;7.80;;
32786;SDS011;19139;49.372;8.580;2023-07-08T01:27:44;9.33;;;7.50;;
32786;SDS011;19139;49.372;8.580;2023-07-08T01:30:13;10.40;;;8.10;;
32786;SDS011;19139;49.372;8.580;2023-07-08T01:32:43;9.47;;;7.57;;
32786;SDS011;19139;49.372;8.580;2023-07-08T01:35:14;11.97;;;8.20;;
32786;SDS011;19139;49.372;8.580;2023-07-08T01:37:43;9.80;;;7.03;;
32786;SDS011;19139;49.372;8.580;2023-07-08T01:42:50;9.90;;;7.83;;
32786;SDS011;19139;49.372;8.580;2023-07-08T01:45:18;10.07;;;7.83;;
32786;SDS011;19139;49.372;8.580;2023-07-08T01:50:27;9.70;;;7.93;;
32786;SDS011;19139;49.372;8.580;2023-07-08T01:52:56;11.73;;;9.10;;
32786;SDS011;19139;49.372;8.580;2023-07-08T01:55:25;11.90;;;8.43;;
32786;SDS011;19139;49.372;8.580;2023-07-08T01:57:54;10.50;;;8.20;;
32786;SDS011;19139;49.372;8.580;2023-07-08T02:00:21;11.53;;;8.00;;
32786;SDS011;19139;49.372;8.580;2023-07-08T02:02:49;12.43;;;9.27;;
32786;SDS011;19139;49.372;8.580;2023-07-08T02:05:17;12.33;;;8.67;;
32786;SDS011;19139;49.372;8.580;2023-07-08T02:07:44;12.07;;;8.13;;
32786;SDS011;19139;49.372;8.580;2023-07-08T02:10:11;10.30;;;8.40;;
32786;SDS011;19139;49.372;8.580;2023-07-08T02:12:37;10.33;;;8.43;;
32786;SDS011;19139;49.372;8.580;2023-07-08T02:15:04;10.10;;;7.70;;
32786;SDS011;19139;49.372;8.580;2023-07-08T02:17:32;10.67;;;8.57;;
32786;SDS011;19139;49.372;8.580;2023-07-08T02:19:59;14.37;;;9.03;;
32786;SDS011;19139;49.372;8.580;2023-07-08T02:22:25;11.33;;;8.00;;
32786;SDS011;19139;49.372;8.580;2023-07-08T02:24:52;12.50;;;9.17;;
32786;SDS011;19139;49.372;8.580;2023-07-08T02:27:19;11.10;;;8.53;;
32786;SDS011;19139;49.372;8.580;2023-07-08T02:29:45;12.07;;;8.10;;
32786;SDS011;19139;49.372;8.580;2023-07-08T02:32:12;11.43;;;7.93;;
32786;SDS011;19139;49.372;8.580;2023-07-08T02:34:39;9.53;;;7.70;;
32786;SDS011;19139;49.372;8.580;2023-07-08T02:37:05;12.90;;;8.57;;
32786;SDS011;19139;49.372;8.580;2023-07-08T02:39:32;10.53;;;7.93;;
32786;SDS011;19139;49.372;8.580;2023-07-08T02:41:59;10.20;;;8.23;;
32786;SDS011;19139;49.372;8.580;2023-07-08T02:44:27;11.20;;;8.53;;
32786;SDS011;19139;49.372;8.580;2023-07-08T02:46:53;12.30;;;8.30;;
32786;SDS011;19139;49.372;8.580;2023-07-08T02:49:20;10.93;;;7.73;;
32786;SDS011;19139;49.372;8.580;2023-07-08T02:51:47;11.17;;;8.30;;
32786;SDS011;19139;49.372;8.580;2023-07-08T02:54:13;11.03;;;7.80;;
32786;SDS011;19139;49.372;8.580;2023-07-08T02:56:40;11.57;;;8.37;;
32786;SDS011;19139;49.372;8.580;2023-07-08T02:59:09;11.37;;;8.53;;
32786;SDS011;19139;49.372;8.580;2023-07-08T03:01:36;14.23;;;8.53;;
32786;SDS011;19139;49.372;8.580;2023-07-08T03:04:08;10.53;;;8.70;;
32786;SDS011;19139;49.372;8.580;2023-07-08T03:06:42;9.57;;;7.93;;
32786;SDS011;19139;49.372;8.580;2023-07-08T03:09:10;10.77;;;8.23;;
32786;SDS011;19139;49.372;8.580;2023-07-08T03:11:38;10.90;;;8.50;;
32786;SDS011;19139;49.372;8.580;2023-07-08T03:14:05;12.00;;;8.70;;
32786;SDS011;19139;49.372;8.580;2023-07-08T03:16:32;10.90;;;7.90;;
32786;SDS011;19139;49.372;8.580;2023-07-08T03:18:59;12.63;;;8.90;;
32786;SDS011;19139;49.372;8.580;2023-07-08T03:21:26;12.47;;;7.87;;
32786;SDS011;19139;49.372;8.580;2023-07-08T03:23:53;13.07;;;8.67;;
32786;SDS011;19139;49.372;8.580;2023-07-08T03:26:23;14.87;;;9.10;;
32786;SDS011;19139;49.372;8.580;2023-07-08T03:28:51;11.43;;;8.53;;
32786;SDS011;19139;49.372;8.580;2023-07-08T03:31:18;13.40;;;9.20;;
32786;SDS011;19139;49.372;8.580;2023-07-08T03:33:44;13.30;;;9.27;;
32786;SDS011;19139;49.372;8.580;2023-07-08T03:36:15;13.20;;;8.80;;
32786;SDS011;19139;49.372;8.580;2023-07-08T03:38:53;11.83;;;8.70;;
32786;SDS011;19139;49.372;8.580;2023-07-08T03:41:22;11.77;;;8.77;;
32786;SDS011;19139;49.372;8.580;2023-07-08T03:43:49;10.53;;;8.40;;
32786;SDS011;19139;49.372;8.580;2023-07-08T03:46:19;9.70;;;8.40;;
32786;SDS011;19139;49.372;8.580;2023-07-08T03:48:47;11.47;;;8.30;;
32786;SDS011;19139;49.372;8.580;2023-07-08T03:51:21;16.93;;;9.67;;
32786;SDS011;19139;49.372;8.580;2023-07-08T03:53:51;13.30;;;9.10;;
32786;SDS011;19139;49.372;8.580;2023-07-08T03:56:18;10.23;;;7.80;;
32786;SDS011;19139;49.372;8.580;2023-07-08T03:58:45;12.07;;;9.27;;
32786;SDS011;19139;49.372;8.580;2023-07-08T04:01:15;12.80;;;8.90;;
32786;SDS011;19139;49.372;8.580;2023-07-08T04:03:44;13.23;;;8.70;;
32786;SDS011;19139;49.372;8.580;2023-07-08T04:06:11;12.27;;;9.00;;
32786;SDS011;19139;49.372;8.580;2023-07-08T04:08:38;12.70;;;8.60;;
32786;SDS011;19139;49.372;8.580;2023-07-08T04:11:05;13.63;;;9.20;;
32786;SDS011;19139;49.372;8.580;2023-07-08T04:13:32;13.90;;;9.40;;
32786;SDS011;19139;49.372;8.580;2023-07-08T04:15:59;10.80;;;9.13;;
32786;SDS011;19139;49.372;8.580;2023-07-08T04:18:28;11.53;;;8.53;;
32786;SDS011;19139;49.372;8.580;2023-07-08T04:20:55;12.10;;;8.97;;
32786;SDS011;19139;49.372;8.580;2023-07-08T04:23:25;13.13;;;8.93;;
32786;SDS011;19139;49.372;8.580;2023-07-08T04:25:52;12.63;;;8.77;;
32786;SDS011;19139;49.372;8.580;2023-07-08T04:28:22;10.93;;;8.57;;
32786;SDS011;19139;49.372;8.580;2023-07-08T04:30:48;10.80;;;8.30;;
32786;SDS011;19139;49.372;8.580;2023-07-08T04:33:15;10.77;;;8.10;;
32786;SDS011;19139;49.372;8.580;2023-07-08T04:35:43;11.73;;;8.50;;
32786;SDS011;19139;49.372;8.580;2023-07-08T04:38:28;12.37;;;8.40;;
32786;SDS011;19139;49.372;8.580;2023-07-08T04:40:55;10.03;;;8.17;;
32786;SDS011;19139;49.372;8.580;2023-07-08T04:43:23;11.47;;;7.37;;
32786;SDS011;19139;49.372;8.580;2023-07-08T04:45:55;11.00;;;7.53;;
32786;SDS011;19139;49.372;8.580;2023-07-08T04:48:23;9.30;;;7.60;;
32786;SDS011;19139;49.372;8.580;2023-07-08T04:50:51;12.13;;;8.70;;
32786;SDS011;19139;49.372;8.580;2023-07-08T04:53:19;9.93;;;8.27;;
32786;SDS011;19139;49.372;8.580;2023-07-08T04:55:50;9.10;;;7.20;;
32786;SDS011;19139;49.372;8.580;2023-07-08T04:58:20;12.87;;;8.60;;
32786;SDS011;19139;49.372;8.580;2023-07-08T05:00:46;9.17;;;7.20;;
32786;SDS011;19139;49.372;8.580;2023-07-08T05:03:13;9.83;;;7.73;;
32786;SDS011;19139;49.372;8.580;2023-07-08T05:05:40;8.63;;;6.87;;
32786;SDS011;19139;49.372;8.580;2023-07-08T05:08:07;9.17;;;7.40;;
32786;SDS011;19139;49.372;8.580;2023-07-08T05:10:34;9.57;;;7.73;;
32786;SDS011;19139;49.372;8.580;2023-07-08T05:13:01;9.27;;;7.53;;
32786;SDS011;19139;49.372;8.580;2023-07-08T05:15:28;8.40;;;6.70;;
32786;SDS011;19139;49.372;8.580;2023-07-08T05:17:55;10.60;;;7.20;;
32786;SDS011;19139;49.372;8.580;2023-07-08T05:20:21;9.17;;;7.03;;
32786;SDS011;19139;49.372;8.580;2023-07-08T05:22:48;8.37;;;6.73;;
32786;SDS011;19139;49.372;8.580;2023-07-08T05:25:15;9.93;;;7.10;;
32786;SDS011;19139;49.372;8.580;2023-07-08T05:27:44;9.50;;;7.10;;
32786;SDS011;19139;49.372;8.580;2023-07-08T05:30:12;9.20;;;6.47;;
32786;SDS011;19139;49.372;8.580;2023-07-08T05:32:44;9.37;;;7.17;;
32786;SDS011;19139;49.372;8.580;2023-07-08T05:35:11;9.57;;;6.73;;
32786;SDS011;19139;49.372;8.580;2023-07-08T05:37:37;8.43;;;6.27;;
32786;SDS011;19139;49.372;8.580;2023-07-08T05:40:07;9.03;;;6.30;;
32786;SDS011;19139;49.372;8.580;2023-07-08T05:42:34;7.80;;;6.03;;
32786;SDS011;19139;49.372;8.580;2023-07-08T05:45:02;9.37;;;6.77;;
32786;SDS011;19139;49.372;8.580;2023-07-08T05:47:29;10.47;;;7.77;;
32786;SDS011;19139;49.372;8.580;2023-07-08T05:49:56;9.17;;;7.90;;
32786;SDS011;19139;49.372;8.580;2023-07-08T05:52:23;8.77;;;7.40;;
32786;SDS011;19139;49.372;8.580;2023-07-08T05:54:50;9.63;;;7.63;;
32786;SDS011;19139;49.372;8.580;2023-07-08T05:57:16;9.40;;;7.27;;
32786;SDS011;19139;49.372;8.580;2023-07-08T05:59:43;10.00;;;7.43;;
32786;SDS011;19139;49.372;8.580;2023-07-08T06:02:10;10.03;;;7.27;;
32786;SDS011;19139;49.372;8.580;2023-07-08T06:04:38;16.63;;;8.80;;
32786;SDS011;19139;49.372;8.580;2023-07-08T06:07:06;19.33;;;8.93;;
32786;SDS011;19139;49.372;8.580;2023-07-08T06:09:33;16.00;;;8.17;;
32786;SDS011;19139;49.372;8.580;2023-07-08T06:12:00;16.23;;;8.33;;
32786;SDS011;19139;49.372;8.580;2023-07-08T06:14:27;14.20;;;8.23;;
32786;SDS011;19139;49.372;8.580;2023-07-08T06:16:54;12.30;;;8.47;;
32786;SDS011;19139;49.372;8.580;2023-07-08T06:19:21;16.73;;;8.73;;
32786;SDS011;19139;49.372;8.580;2023-07-08T06:21:48;14.70;;;8.57;;
32786;SDS011;19139;49.372;8.580;2023-07-08T06:24:15;11.07;;;8.00;;
32786;SDS011;19139;49.372;8.580;2023-07-08T06:26:41;14.33;;;8.63;;
32786;SDS011;19139;49.372;8.580;2023-07-08T06:29:08;10.20;;;7.50;;
32786;SDS011;19139;49.372;8.580;2023-07-08T06:31:35;14.60;;;8.40;;
32786;SDS011;19139;49.372;8.580;2023-07-08T06:34:01;16.07;;;8.20;;
32786;SDS011;19139;49.372;8.580;2023-07-08T06:36:30;13.47;;;8.13;;
32786;SDS011;19139;49.372;8.580;2023-07-08T06:38:57;11.90;;;7.47;;
32786;SDS011;19139;49.372;8.580;2023-07-08T06:41:23;11.50;;;7.20;;
32786;SDS011;19139;49.372;8.580;2023-07-08T06:43:50;11.73;;;7.37;;
32786;SDS011;19139;49.372;8.580;2023-07-08T06:46:17;11.53;;;7.80;;
32786;SDS011;19139;49.372;8.580;2023-07-08T06:48:45;13.30;;;8.20;;
32786;SDS011;19139;49.372;8.580;2023-07-08T06:51:12;13.40;;;8.03;;
32786;SDS011;19139;49.372;8.580;2023-07-08T06:53:38;10.77;;;7.73;;
32786;SDS011;19139;49.372;8.580;2023-07-08T06:56:05;11.57;;;8.30;;
32786;SDS011;19139;49.372;8.580;2023-07-08T06:58:32;20.40;;;7.93;;
32786;SDS011;19139;49.372;8.580;2023-07-08T07:00:58;11.30;;;7.70;;
32786;SDS011;19139;49.372;8.580;2023-07-08T07:03:26;10.23;;;6.93;;
32786;SDS011;19139;49.372;8.580;2023-07-08T07:05:53;10.10;;;7.67;;
32786;SDS011;19139;49.372;8.580;2023-07-08T07:08:19;10.30;;;7.03;;
32786;SDS011;19139;49.372;8.580;2023-07-08T07:10:46;9.90;;;7.07;;
32786;SDS011;19139;49.372;8.580;2023-07-08T07:13:12;11.73;;;7.50;;
32786;SDS011;19139;49.372;8.580;2023-07-08T07:15:39;9.00;;;7.53;;
32786;SDS011;19139;49.372;8.580;2023-07-08T07:18:06;9.60;;;7.30;;
32786;SDS011;19139;49.372;8.580;2023-07-08T07:20:33;9.90;;;6.97;;
32786;SDS011;19139;49.372;8.580;2023-07-08T07:23:02;11.40;;;7.10;;
32786;SDS011;19139;49.372;8.580;2023-07-08T07:25:29;8.20;;;7.30;;
32786;SDS011;19139;49.372;8.580;2023-07-08T07:27:56;8.13;;;6.73;;
32786;SDS011;19139;49.372;8.580;2023-07-08T07:30:23;9.33;;;7.67;;
32786;SDS011;19139;49.372;8.580;2023-07-08T07:32:50;8.57;;;6.97;;
32786;SDS011;19139;49.372;8.580;2023-07-08T07:35:16;8.70;;;7.03;;
32786;SDS011;19139;49.372;8.580;2023-07-08T07:37:43;10.10;;;7.93;;
32786;SDS011;19139;49.372;8.580;2023-07-08T07:40:11;9.90;;;7.33;;
32786;SDS011;19139;49.372;8.580;2023-07-08T07:42:40;11.63;;;6.97;;
32786;SDS011;19139;49.372;8.580;2023-07-08T07:45:08;8.13;;;6.50;;
32786;SDS011;19139;49.372;8.580;2023-07-08T07:47:35;9.63;;;7.20;;
32786;SDS011;19139;49.372;8.580;2023-07-08T07:50:03;8.50;;;7.20;;
32786;SDS011;19139;49.372;8.580;2023-07-08T07:52:31;8.63;;;6.90;;
32786;SDS011;19139;49.372;8.580;2023-07-08T07:54:58;10.00;;;6.60;;
32786;SDS011;19139;49.372;8.580;2023-07-08T07:57:25;9.13;;;6.53;;
32786;SDS011;19139;49.372;8.580;2023-07-08T07:59:52;9.07;;;7.00;;
32786;SDS011;19139;49.372;8.580;2023-07-08T08:02:19;27.73;;;8.20;;
32786;SDS011;19139;49.372;8.580;2023-07-08T08:04:45;13.80;;;8.27;;
32786;SDS011;19139;49.372;8.580;2023-07-08T08:07:12;10.57;;;7.33;;
32786;SDS011;19139;49.372;8.580;2023-07-08T08:09:39;10.67;;;6.83;;
32786;SDS011;19139;49.372;8.580;2023-07-08T08:12:07;13.20;;;7.33;;
32786;SDS011;19139;49.372;8.580;2023-07-08T08:14:35;10.87;;;7.13;;
32786;SDS011;19139;49.372;8.580;2023-07-08T08:17:03;9.40;;;6.73;;
32786;SDS011;19139;49.372;8.580;2023-07-08T08:19:30;10.70;;;7.13;;
32786;SDS011;19139;49.372;8.580;2023-07-08T08:21:58;10.83;;;7.03;;
32786;SDS011;19139;49.372;8.580;2023-07-08T08:24:24;8.10;;;5.90;;
32786;SDS011;19139;49.372;8.580;2023-07-08T08:26:53;9.83;;;7.07;;
32786;SDS011;19139;49.372;8.580;2023-07-08T08:29:20;10.60;;;6.73;;
32786;SDS011;19139;49.372;8.580;2023-07-08T08:31:46;9.07;;;6.40;;
32786;SDS011;19139;49.372;8.580;2023-07-08T08:34:13;10.20;;;6.80;;
32786;SDS011;19139;49.372;8.580;2023-07-08T08:36:40;9.60;;;6.07;;
32786;SDS011;19139;49.372;8.580;2023-07-08T08:39:06;9.20;;;5.90;;
32786;SDS011;19139;49.372;8.580;2023-07-08T08:41:34;10.00;;;6.00;;
32786;SDS011;19139;49.372;8.580;2023-07-08T08:44:03;7.37;;;6.53;;
32786;SDS011;19139;49.372;8.580;2023-07-08T08:51:51;8.60;;;5.77;;
32786;SDS011;19139;49.372;8.580;2023-07-08T08:54:18;7.33;;;5.57;;
32786;SDS011;19139;49.372;8.580;2023-07-08T08:59:56;8.63;;;6.37;;
32786;SDS011;19139;49.372;8.580;2023-07-08T09:05:03;6.10;;;5.20;;
32786;SDS011;19139;49.372;8.580;2023-07-08T09:07:44;6.47;;;5.37;;
32786;SDS011;19139;49.372;8.580;2023-07-08T09:10:42;7.50;;;5.63;;
32786;SDS011;19139;49.372;8.580;2023-07-08T09:13:16;7.63;;;5.67;;
32786;SDS011;19139;49.372;8.580;2023-07-08T09:16:01;7.87;;;5.20;;
32786;SDS011;19139;49.372;8.580;2023-07-08T09:21:29;6.10;;;4.93;;
32786;SDS011;19139;49.372;8.580;2023-07-08T09:24:06;7.83;;;5.27;;
32786;SDS011;19139;49.372;8.580;2023-07-08T09:26:41;9.33;;;5.37;;
32786;SDS011;19139;49.372;8.580;2023-07-08T09:29:08;8.20;;;5.10;;
32786;SDS011;19139;49.372;8.580;2023-07-08T09:31:37;8.03;;;5.00;;
32786;SDS011;19139;49.372;8.580;2023-07-08T09:34:08;6.70;;;4.83;;
32786;SDS011;19139;49.372;8.580;2023-07-08T09:36:43;7.53;;;5.50;;
32786;SDS011;19139;49.372;8.580;2023-07-08T09:39:12;7.40;;;5.33;;
32786;SDS011;19139;49.372;8.580;2023-07-08T09:41:42;6.37;;;5.10;;
32786;SDS011;19139;49.372;8.580;2023-07-08T09:44:24;5.70;;;5.10;;
32786;SDS011;19139;49.372;8.580;2023-07-08T09:46:53;7.60;;;4.73;;
32786;SDS011;19139;49.372;8.580;2023-07-08T09:49:23;7.30;;;4.73;;
32786;SDS011;19139;49.372;8.580;2023-07-08T09:51:53;7.00;;;4.60;;
32786;SDS011;19139;49.372;8.580;2023-07-08T09:54:22;9.07;;;5.00;;
32786;SDS011;19139;49.372;8.580;2023-07-08T09:57:00;5.77;;;5.13;;
32786;SDS011;19139;49.372;8.580;2023-07-08T09:59:32;6.00;;;5.40;;
32786;SDS011;19139;49.372;8.580;2023-07-08T10:02:11;4.77;;;4.00;;
32786;SDS011;19139;49.372;8.580;2023-07-08T10:04:43;6.13;;;4.50;;
32786;SDS011;19139;49.372;8.580;2023-07-08T10:07:10;5.90;;;4.40;;
32786;SDS011;19139;49.372;8.580;2023-07-08T10:09:42;5.40;;;4.90;;
32786;SDS011;19139;49.372;8.580;2023-07-08T10:12:11;5.63;;;5.00;;
32786;SDS011;19139;49.372;8.580;2023-07-08T10:14:42;7.03;;;4.40;;
32786;SDS011;19139;49.372;8.580;2023-07-08T10:17:16;7.40;;;5.13;;
32786;SDS011;19139;49.372;8.580;2023-07-08T10:19:45;5.33;;;3.80;;
32786;SDS011;19139;49.372;8.580;2023-07-08T10:25:06;5.03;;;4.13;;
32786;SDS011;19139;49.372;8.580;2023-07-08T10:27:43;5.47;;;4.47;;
32786;SDS011;19139;49.372;8.580;2023-07-08T10:30:30;5.67;;;4.63;;
32786;SDS011;19139;49.372;8.580;2023-07-08T10:41:15;5.93;;;4.13;;
32786;SDS011;19139;49.372;8.580;2023-07-08T10:46:54;5.07;;;4.20;;
32786;SDS011;19139;49.372;8.580;2023-07-08T10:49:31;6.07;;;4.23;;
32786;SDS011;19139;49.372;8.580;2023-07-08T10:52:14;5.43;;;4.63;;
32786;SDS011;19139;49.372;8.580;2023-07-08T10:57:56;4.43;;;3.83;;
32786;SDS011;19139;49.372;8.580;2023-07-08T11:03:35;5.53;;;4.33;;
32786;SDS011;19139;49.372;8.580;2023-07-08T11:06:13;6.23;;;4.57;;
32786;SDS011;19139;49.372;8.580;2023-07-08T11:08:45;5.03;;;3.97;;
32786;SDS011;19139;49.372;8.580;2023-07-08T11:11:24;5.23;;;3.90;;
32786;SDS011;19139;49.372;8.580;2023-07-08T11:14:11;4.53;;;3.63;;
32786;SDS011;19139;49.372;8.580;2023-07-08T11:19:44;5.67;;;4.20;;
32786;SDS011;19139;49.372;8.580;2023-07-08T11:22:23;4.83;;;3.90;;
32786;SDS011;19139;49.372;8.580;2023-07-08T11:24:51;4.10;;;3.70;;
32786;SDS011;19139;49.372;8.580;2023-07-08T11:27:22;4.17;;;3.43;;
32786;SDS011;19139;49.372;8.580;2023-07-08T11:29:58;4.63;;;3.90;;
32786;SDS011;19139;49.372;8.580;2023-07-08T11:32:30;4.20;;;3.80;;
32786;SDS011;19139;49.372;8.580;2023-07-08T11:34:59;4.23;;;3.80;;
32786;SDS011;19139;49.372;8.580;2023-07-08T11:37:28;5.03;;;4.43;;
32786;SDS011;19139;49.372;8.580;2023-07-08T11:39:58;6.27;;;4.00;;
32786;SDS011;19139;49.372;8.580;2023-07-08T11:42:42;4.30;;;3.90;;
32786;SDS011;19139;49.372;8.580;2023-07-08T11:45:27;5.60;;;4.03;;
32786;SDS011;19139;49.372;8.580;2023-07-08T11:50:43;4.57;;;3.77;;
32786;SDS011;19139;49.372;8.580;2023-07-08T11:53:31;4.80;;;3.73;;
32786;SDS011;19139;49.372;8.580;2023-07-08T11:56:04;6.17;;;3.87;;
32786;SDS011;19139;49.372;8.580;2023-07-08T12:01:20;4.33;;;3.47;;
32786;SDS011;19139;49.372;8.580;2023-07-08T12:09:12;4.87;;;4.13;;
32786;SDS011;19139;49.372;8.580;2023-07-08T12:11:55;4.77;;;3.70;;
32786;SDS011;19139;49.372;8.580;2023-07-08T12:14:25;5.10;;;4.10;;
32786;SDS011;19139;49.372;8.580;2023-07-08T12:16:54;4.67;;;3.53;;
32786;SDS011;19139;49.372;8.580;2023-07-08T12:19:22;6.27;;;3.90;;
32786;SDS011;19139;49.372;8.580;2023-07-08T12:21:55;4.47;;;4.03;;
32786;SDS011;19139;49.372;8.580;2023-07-08T12:24:21;5.10;;;4.27;;
32786;SDS011;19139;49.372;8.580;2023-07-08T12:26:52;4.47;;;3.80;;
32786;SDS011;19139;49.372;8.580;2023-07-08T12:29:19;5.20;;;4.17;;
32786;SDS011;19139;49.372;8.580;2023-07-08T12:31:46;4.53;;;3.87;;
32786;SDS011;19139;49.372;8.580;2023-07-08T12:34:13;4.33;;;3.60;;
32786;SDS011;19139;49.372;8.580;2023-07-08T12:36:43;5.23;;;3.83;;
32786;SDS011;19139;49.372;8.580;2023-07-08T12:39:13;4.93;;;4.10;;
32786;SDS011;19139;49.372;8.580;2023-07-08T12:41:41;4.27;;;3.60;;
32786;SDS011;19139;49.372;8.580;2023-07-08T12:44:19;4.03;;;3.63;;
32786;SDS011;19139;49.372;8.580;2023-07-08T12:46:48;4.50;;;3.90;;
32786;SDS011;19139;49.372;8.580;2023-07-08T12:49:19;5.23;;;3.70;;
32786;SDS011;19139;49.372;8.580;2023-07-08T12:51:46;4.83;;;3.93;;
32786;SDS011;19139;49.372;8.580;2023-07-08T12:54:13;5.47;;;3.60;;
32786;SDS011;19139;49.372;8.580;2023-07-08T12:56:43;4.67;;;3.50;;
32786;SDS011;19139;49.372;8.580;2023-07-08T12:59:12;4.47;;;3.87;;
32786;SDS011;19139;49.372;8.580;2023-07-08T13:01:43;4.33;;;3.27;;
32786;SDS011;19139;49.372;8.580;2023-07-08T13:04:12;4.63;;;3.50;;
32786;SDS011;19139;49.372;8.580;2023-07-08T13:06:40;4.67;;;3.87;;
32786;SDS011;19139;49.372;8.580;2023-07-08T13:09:26;5.17;;;3.87;;
32786;SDS011;19139;49.372;8.580;2023-07-08T13:12:15;4.13;;;3.47;;
32786;SDS011;19139;49.372;8.580;2023-07-08T13:14:48;4.33;;;3.23;;
32786;SDS011;19139;49.372;8.580;2023-07-08T13:17:15;4.23;;;3.10;;
32786;SDS011;19139;49.372;8.580;2023-07-08T13:19:43;4.30;;;3.77;;
32786;SDS011;19139;49.372;8.580;2023-07-08T13:22:12;4.03;;;3.33;;
32786;SDS011;19139;49.372;8.580;2023-07-08T13:24:44;5.90;;;3.47;;
32786;SDS011;19139;49.372;8.580;2023-07-08T13:27:20;4.00;;;3.60;;
32786;SDS011;19139;49.372;8.580;2023-07-08T13:29:51;4.97;;;3.47;;
32786;SDS011;19139;49.372;8.580;2023-07-08T13:32:18;3.90;;;3.20;;
32786;SDS011;19139;49.372;8.580;2023-07-08T13:34:48;3.33;;;3.00;;
32786;SDS011;19139;49.372;8.580;2023-07-08T13:37:16;4.20;;;3.57;;
32786;SDS011;19139;49.372;8.580;2023-07-08T13:39:50;4.50;;;3.50;;
32786;SDS011;19139;49.372;8.580;2023-07-08T13:42:19;3.50;;;2.87;;
32786;SDS011;19139;49.372;8.580;2023-07-08T13:44:46;3.63;;;3.23;;
32786;SDS011;19139;49.372;8.580;2023-07-08T13:47:19;5.03;;;3.67;;
32786;SDS011;19139;49.372;8.580;2023-07-08T13:49:48;4.10;;;3.40;;
32786;SDS011;19139;49.372;8.580;2023-07-08T13:52:22;22.73;;;4.50;;
32786;SDS011;19139;49.372;8.580;2023-07-08T13:54:53;4.03;;;3.50;;
32786;SDS011;19139;49.372;8.580;2023-07-08T13:57:27;5.17;;;3.13;;
32786;SDS011;19139;49.372;8.580;2023-07-08T13:59:58;4.43;;;3.40;;
32786;SDS011;19139;49.372;8.580;2023-07-08T14:02:26;4.27;;;3.07;;
32786;SDS011;19139;49.372;8.580;2023-07-08T14:04:56;3.73;;;3.30;;
32786;SDS011;19139;49.372;8.580;2023-07-08T14:07:26;6.37;;;3.97;;
32786;SDS011;19139;49.372;8.580;2023-07-08T14:09:54;4.47;;;3.20;;
32786;SDS011;19139;49.372;8.580;2023-07-08T14:12:21;3.30;;;2.80;;
32786;SDS011;19139;49.372;8.580;2023-07-08T14:14:49;3.70;;;3.00;;
32786;SDS011;19139;49.372;8.580;2023-07-08T14:17:25;3.93;;;2.73;;
32786;SDS011;19139;49.372;8.580;2023-07-08T14:19:53;3.50;;;3.20;;
32786;SDS011;19139;49.372;8.580;2023-07-08T14:22:22;4.30;;;3.40;;
32786;SDS011;19139;49.372;8.580;2023-07-08T14:24:49;3.47;;;3.17;;
32786;SDS011;19139;49.372;8.580;2023-07-08T14:27:15;4.00;;;3.10;;
32786;SDS011;19139;49.372;8.580;2023-07-08T14:29:46;4.60;;;3.00;;
32786;SDS011;19139;49.372;8.580;2023-07-08T14:32:24;3.10;;;2.60;;
32786;SDS011;19139;49.372;8.580;2023-07-08T14:34:56;4.83;;;3.33;;
32786;SDS011;19139;49.372;8.580;2023-07-08T14:37:25;2.97;;;2.50;;
32786;SDS011;19139;49.372;8.580;2023-07-08T14:39:52;4.80;;;3.27;;
32786;SDS011;19139;49.372;8.580;2023-07-08T14:42:18;3.73;;;2.60;;
32786;SDS011;19139;49.372;8.580;2023-07-08T14:44:49;3.13;;;2.83;;
32786;SDS011;19139;49.372;8.580;2023-07-08T14:47:17;4.27;;;3.33;;
32786;SDS011;19139;49.372;8.580;2023-07-08T14:49:44;3.07;;;2.73;;
32786;SDS011;19139;49.372;8.580;2023-07-08T14:52:12;4.13;;;3.00;;
32786;SDS011;19139;49.372;8.580;2023-07-08T14:54:38;4.50;;;3.13;;
32786;SDS011;19139;49.372;8.580;2023-07-08T14:57:06;4.23;;;3.00;;
32786;SDS011;19139;49.372;8.580;2023-07-08T14:59:34;2.80;;;2.57;;
32786;SDS011;19139;49.372;8.580;2023-07-08T15:02:02;3.43;;;2.70;;
32786;SDS011;19139;49.372;8.580;2023-07-08T15:04:47;3.00;;;2.60;;
32786;SDS011;19139;49.372;8.580;2023-07-08T15:07:13;3.90;;;3.00;;
32786;SDS011;19139;49.372;8.580;2023-07-08T15:09:40;4.03;;;3.00;;
32786;SDS011;19139;49.372;8.580;2023-07-08T15:12:08;3.30;;;2.67;;
32786;SDS011;19139;49.372;8.580;2023-07-08T15:14:37;3.47;;;3.07;;
32786;SDS011;19139;49.372;8.580;2023-07-08T15:17:12;3.07;;;2.77;;
32786;SDS011;19139;49.372;8.580;2023-07-08T15:19:43;3.20;;;2.80;;
32786;SDS011;19139;49.372;8.580;2023-07-08T15:22:10;2.83;;;2.50;;
32786;SDS011;19139;49.372;8.580;2023-07-08T15:24:37;3.73;;;2.73;;
32786;SDS011;19139;49.372;8.580;2023-07-08T15:27:04;3.27;;;2.53;;
32786;SDS011;19139;49.372;8.580;2023-07-08T15:29:31;3.20;;;2.80;;
32786;SDS011;19139;49.372;8.580;2023-07-08T15:31:59;3.20;;;2.80;;
32786;SDS011;19139;49.372;8.580;2023-07-08T15:34:26;3.00;;;2.37;;
32786;SDS011;19139;49.372;8.580;2023-07-08T15:36:53;3.57;;;2.53;;
32786;SDS011;19139;49.372;8.580;2023-07-08T15:39:20;3.50;;;2.70;;
32786;SDS011;19139;49.372;8.580;2023-07-08T15:41:49;3.30;;;2.63;;
32786;SDS011;19139;49.372;8.580;2023-07-08T15:44:15;3.20;;;2.77;;
32786;SDS011;19139;49.372;8.580;2023-07-08T15:46:43;2.93;;;2.63;;
32786;SDS011;19139;49.372;8.580;2023-07-08T15:49:21;3.20;;;2.83;;
32786;SDS011;19139;49.372;8.580;2023-07-08T15:51:53;4.30;;;3.00;;
32786;SDS011;19139;49.372;8.580;2023-07-08T15:54:19;3.43;;;2.80;;
32786;SDS011;19139;49.372;8.580;2023-07-08T15:56:47;3.00;;;2.30;;
32786;SDS011;19139;49.372;8.580;2023-07-08T15:59:17;3.37;;;2.70;;